sensor_id;sensor_type;location;lat;lon;timestamp;pressure;altitude;pressure_sealevel;temperature;humidity
5883;BME280;2967;51.488;6.618;2023-01-08T00:17:01;100183.66;;;11.92;100.00
5883;BME280;2967;51.488;6.618;2023-01-08T00:23:55;100191.94;;;11.99;100.00
5883;BME280;2967;51.488;6.618;2023-01-08T01:36:00;100140.19;;;11.73;100.00
5883;BME280;2967;51.488;6.618;2023-01-08T01:41:03;100150.53;;;11.76;100.00
5883;BME280;2967;51.488;6.618;2023-01-08T01:46:17;100135.75;;;11.62;100.00
5883;BME280;2967;51.488;6.618;2023-01-08T01:51:25;100136.81;;;11.71;100.00
5883;BME280;2967;51.488;6.618;2023-01-08T01:56:31;100139.09;;;11.75;100.00
5883;BME280;2967;51.488;6.618;2023-01-08T02:01:35;100004.81;;;11.11;100.00
5883;BME280;2967;51.488;6.618;2023-01-08T02:06:41;100135.13;;;11.81;100.00
5883;BME280;2967;51.488;6.618;2023-01-08T02:11:49;100128.63;;;11.85;100.00
5883;BME280;2967;51.488;6.618;2023-01-08T02:17:16;100067.84;;;11.61;100.00
5883;BME280;2967;51.488;6.618;2023-01-08T02:22:33;100056.16;;;11.53;100.00
5883;BME280;2967;51.488;6.618;2023-01-08T02:27:39;100105.84;;;11.82;100.00
5883;BME280;2967;51.488;6.618;2023-01-08T02:32:44;100085.50;;;11.83;100.00
5883;BME280;2967;51.488;6.618;2023-01-08T02:37:46;100075.97;;;11.91;100.00
5883;BME280;2967;51.488;6.618;2023-01-08T02:42:54;100075.47;;;11.86;100.00
5883;BME280;2967;51.488;6.618;2023-01-08T02:48:06;100061.78;;;11.81;100.00
5883;BME280;2967;51.488;6.618;2023-01-08T02:53:12;100066.69;;;11.86;100.00
5883;BME280;2967;51.488;6.618;2023-01-08T02:58:17;100054.78;;;11.80;100.00
5883;BME280;2967;51.488;6.618;2023-01-08T03:03:24;100050.94;;;11.73;100.00
5883;BME280;2967;51.488;6.618;2023-01-08T03:08:28;100045.88;;;11.81;100.00
5883;BME280;2967;51.488;6.618;2023-01-08T03:13:36;100038.91;;;11.80;100.00
5883;BME280;2967;51.488;6.618;2023-01-08T03:18:44;100033.94;;;11.87;100.00
5883;BME280;2967;51.488;6.618;2023-01-08T03:23:49;100039.72;;;11.81;100.00
5883;BME280;2967;51.488;6.618;2023-01-08T03:28:55;100024.22;;;11.65;100.00
5883;BME280;2967;51.488;6.618;2023-01-08T03:33:59;100046.47;;;11.85;100.00
5883;BME280;2967;51.488;6.618;2023-01-08T03:39:07;100039.22;;;11.87;100.00
5883;BME280;2967;51.488;6.618;2023-01-08T03:44:15;100036.84;;;11.84;100.00
5883;BME280;2967;51.488;6.618;2023-01-08T03:49:18;100040.25;;;11.75;100.00
5883;BME280;2967;51.488;6.618;2023-01-08T03:54:23;100032.78;;;11.69;100.00
5883;BME280;2967;51.488;6.618;2023-01-08T03:59:28;100031.22;;;11.66;100.00
5883;BME280;2967;51.488;6.618;2023-01-08T04:04:31;100016.41;;;11.75;100.00
5883;BME280;2967;51.488;6.618;2023-01-08T04:09:33;100026.03;;;11.76;100.00
5883;BME280;2967;51.488;6.618;2023-01-08T04:14:37;100021.31;;;11.79;100.00
5883;BME280;2967;51.488;6.618;2023-01-08T04:19:40;100013.22;;;11.81;100.00
5883;BME280;2967;51.488;6.618;2023-01-08T04:24:42;100013.50;;;11.78;100.00
5883;BME280;2967;51.488;6.618;2023-01-08T04:29:46;100010.84;;;11.78;100.00
5883;BME280;2967;51.488;6.618;2023-01-08T04:34:49;100012.78;;;11.76;100.00
5883;BME280;2967;51.488;6.618;2023-01-08T04:39:52;100007.34;;;11.77;100.00
5883;BME280;2967;51.488;6.618;2023-01-08T04:44:56;100005.81;;;11.75;100.00
5883;BME280;2967;51.488;6.618;2023-01-08T04:49:59;100004.69;;;11.77;100.00
5883;BME280;2967;51.488;6.618;2023-01-08T04:55:01;99992.63;;;11.84;100.00
5883;BME280;2967;51.488;6.618;2023-01-08T05:00:07;99960.16;;;11.71;100.00
5883;BME280;2967;51.488;6.618;2023-01-08T05:05:09;99982.28;;;11.81;100.00
5883;BME280;2967;51.488;6.618;2023-01-08T05:10:12;99980.66;;;11.69;100.00
5883;BME280;2967;51.488;6.618;2023-01-08T05:15:16;99921.13;;;11.31;100.00
5883;BME280;2967;51.488;6.618;2023-01-08T05:20:19;99975.69;;;11.76;100.00
5883;BME280;2967;51.488;6.618;2023-01-08T05:25:21;99971.72;;;11.70;100.00
5883;BME280;2967;51.488;6.618;2023-01-08T05:30:25;99975.41;;;11.58;100.00
5883;BME280;2967;51.488;6.618;2023-01-08T05:35:28;99967.44;;;11.58;100.00
5883;BME280;2967;51.488;6.618;2023-01-08T05:40:30;99971.63;;;11.61;100.00
5883;BME280;2967;51.488;6.618;2023-01-08T05:45:34;99975.47;;;11.68;100.00
5883;BME280;2967;51.488;6.618;2023-01-08T05:50:37;99970.53;;;11.63;100.00
5883;BME280;2967;51.488;6.618;2023-01-08T05:55:40;99981.25;;;11.73;100.00
5883;BME280;2967;51.488;6.618;2023-01-08T06:00:44;100001.41;;;11.31;100.00
5883;BME280;2967;51.488;6.618;2023-01-08T06:05:46;100008.88;;;11.04;100.00
5883;BME280;2967;51.488;6.618;2023-01-08T06:10:49;99993.38;;;10.67;100.00
5883;BME280;2967;51.488;6.618;2023-01-08T06:15:53;99984.59;;;10.66;100.00
5883;BME280;2967;51.488;6.618;2023-01-08T06:20:56;99988.69;;;10.70;100.00
5883;BME280;2967;51.488;6.618;2023-01-08T06:26:00;99997.34;;;10.50;100.00
5883;BME280;2967;51.488;6.618;2023-01-08T06:31:06;100009.06;;;10.36;100.00
5883;BME280;2967;51.488;6.618;2023-01-08T06:36:09;100014.06;;;10.17;100.00
5883;BME280;2967;51.488;6.618;2023-01-08T06:41:11;100012.34;;;10.05;100.00
5883;BME280;2967;51.488;6.618;2023-01-08T06:46:15;100009.50;;;10.08;100.00
5883;BME280;2967;51.488;6.618;2023-01-08T06:51:18;100020.56;;;9.77;100.00
5883;BME280;2967;51.488;6.618;2023-01-08T06:56:21;100027.50;;;9.90;100.00
5883;BME280;2967;51.488;6.618;2023-01-08T07:01:25;100020.56;;;10.00;100.00
5883;BME280;2967;51.488;6.618;2023-01-08T07:06:28;100023.31;;;9.88;100.00
5883;BME280;2967;51.488;6.618;2023-01-08T07:11:30;100026.16;;;9.85;100.00
5883;BME280;2967;51.488;6.618;2023-01-08T07:16:35;100038.56;;;9.95;100.00
5883;BME280;2967;51.488;6.618;2023-01-08T07:21:37;100021.53;;;9.99;100.00
5883;BME280;2967;51.488;6.618;2023-01-08T07:26:40;100027.75;;;10.11;100.00
5883;BME280;2967;51.488;6.618;2023-01-08T07:31:44;100035.78;;;10.09;100.00
5883;BME280;2967;51.488;6.618;2023-01-08T07:36:47;100039.78;;;10.26;100.00
5883;BME280;2967;51.488;6.618;2023-01-08T07:41:49;100041.09;;;10.20;100.00
5883;BME280;2967;51.488;6.618;2023-01-08T07:46:53;100031.09;;;10.13;100.00
5883;BME280;2967;51.488;6.618;2023-01-08T07:51:57;100028.22;;;10.16;100.00
5883;BME280;2967;51.488;6.618;2023-01-08T07:56:59;100027.50;;;10.14;100.00
5883;BME280;2967;51.488;6.618;2023-01-08T08:02:03;100020.09;;;10.19;100.00
5883;BME280;2967;51.488;6.618;2023-01-08T08:07:06;100014.81;;;10.19;100.00
5883;BME280;2967;51.488;6.618;2023-01-08T08:12:09;100035.19;;;10.17;100.00
5883;BME280;2967;51.488;6.618;2023-01-08T08:17:13;100008.47;;;9.98;100.00
5883;BME280;2967;51.488;6.618;2023-01-08T08:22:15;100020.88;;;10.08;100.00
5883;BME280;2967;51.488;6.618;2023-01-08T08:27:18;100015.53;;;9.97;100.00
5883;BME280;2967;51.488;6.618;2023-01-08T08:32:22;100012.03;;;9.97;100.00
5883;BME280;2967;51.488;6.618;2023-01-08T08:37:25;100011.63;;;10.03;100.00
5883;BME280;2967;51.488;6.618;2023-01-08T08:42:28;99998.41;;;10.03;100.00
5883;BME280;2967;51.488;6.618;2023-01-08T08:47:32;100022.09;;;9.92;100.00
5883;BME280;2967;51.488;6.618;2023-01-08T08:52:34;100010.13;;;9.99;100.00
5883;BME280;2967;51.488;6.618;2023-01-08T08:57:37;100009.59;;;10.06;100.00
5883;BME280;2967;51.488;6.618;2023-01-08T09:02:42;100006.88;;;10.19;100.00
5883;BME280;2967;51.488;6.618;2023-01-08T09:07:44;100000.03;;;10.27;100.00
5883;BME280;2967;51.488;6.618;2023-01-08T09:12:47;100004.00;;;10.33;100.00
5883;BME280;2967;51.488;6.618;2023-01-08T09:17:55;99994.88;;;10.37;100.00
5883;BME280;2967;51.488;6.618;2023-01-08T09:22:59;99994.31;;;10.44;100.00
5883;BME280;2967;51.488;6.618;2023-01-08T09:28:04;99992.66;;;10.54;100.00
5883;BME280;2967;51.488;6.618;2023-01-08T09:33:09;99987.03;;;10.69;100.00
5883;BME280;2967;51.488;6.618;2023-01-08T09:38:12;99995.41;;;10.74;100.00
5883;BME280;2967;51.488;6.618;2023-01-08T09:43:18;99982.81;;;10.78;100.00
5883;BME280;2967;51.488;6.618;2023-01-08T09:48:26;99972.56;;;10.95;100.00
5883;BME280;2967;51.488;6.618;2023-01-08T09:53:31;99974.03;;;10.99;100.00
5883;BME280;2967;51.488;6.618;2023-01-08T09:58:37;99965.59;;;10.83;100.00
5883;BME280;2967;51.488;6.618;2023-01-08T10:03:43;99955.97;;;11.04;100.00
5883;BME280;2967;51.488;6.618;2023-01-08T10:08:48;99966.78;;;11.12;100.00
5883;BME280;2967;51.488;6.618;2023-01-08T10:13:53;99954.28;;;11.03;100.00
5883;BME280;2967;51.488;6.618;2023-01-08T10:18:58;99925.44;;;11.00;100.00
5883;BME280;2967;51.488;6.618;2023-01-08T10:24:02;99935.13;;;11.33;100.00
5883;BME280;2967;51.488;6.618;2023-01-08T10:29:06;99909.03;;;11.17;100.00
5883;BME280;2967;51.488;6.618;2023-01-08T10:34:19;99888.81;;;11.27;100.00
5883;BME280;2967;51.488;6.618;2023-01-08T10:39:26;99902.25;;;11.67;100.00
5883;BME280;2967;51.488;6.618;2023-01-08T10:44:30;99885.06;;;11.82;100.00
5883;BME280;2967;51.488;6.618;2023-01-08T10:49:38;99868.66;;;11.88;100.00
5883;BME280;2967;51.488;6.618;2023-01-08T10:54:43;99867.91;;;11.97;100.00
5883;BME280;2967;51.488;6.618;2023-01-08T10:59:46;99869.19;;;12.02;100.00
5883;BME280;2967;51.488;6.618;2023-01-08T11:04:51;99850.16;;;12.18;100.00
5883;BME280;2967;51.488;6.618;2023-01-08T11:09:54;99859.19;;;12.15;100.00
5883;BME280;2967;51.488;6.618;2023-01-08T11:14:57;99849.25;;;12.08;100.00
5883;BME280;2967;51.488;6.618;2023-01-08T11:20:18;99836.47;;;12.13;100.00
5883;BME280;2967;51.488;6.618;2023-01-08T11:25:26;99835.31;;;12.06;100.00
5883;BME280;2967;51.488;6.618;2023-01-08T11:30:32;99842.28;;;11.86;100.00
5883;BME280;2967;51.488;6.618;2023-01-08T11:35:40;99831.56;;;11.67;100.00
5883;BME280;2967;51.488;6.618;2023-01-08T11:40:49;99820.34;;;11.75;100.00
5883;BME280;2967;51.488;6.618;2023-01-08T11:46:04;99818.63;;;11.53;100.00
5883;BME280;2967;51.488;6.618;2023-01-08T11:51:37;99803.59;;;11.74;100.00
5883;BME280;2967;51.488;6.618;2023-01-08T11:56:57;99794.94;;;11.93;100.00
5883;BME280;2967;51.488;6.618;2023-01-08T12:02:17;99790.16;;;11.66;100.00
5883;BME280;2967;51.488;6.618;2023-01-08T12:07:30;99775.25;;;11.65;100.00
5883;BME280;2967;51.488;6.618;2023-01-08T12:12:46;99780.53;;;11.45;100.00
5883;BME280;2967;51.488;6.618;2023-01-08T12:23:34;99772.16;;;11.60;100.00
5883;BME280;2967;51.488;6.618;2023-01-08T12:29:08;99763.66;;;11.66;100.00
5883;BME280;2967;51.488;6.618;2023-01-08T12:34:18;99758.28;;;11.77;100.00
5883;BME280;2967;51.488;6.618;2023-01-08T12:39:27;99759.91;;;11.89;100.00
5883;BME280;2967;51.488;6.618;2023-01-08T12:44:32;99755.25;;;11.82;100.00
5883;BME280;2967;51.488;6.618;2023-01-08T12:49:37;99754.44;;;11.81;100.00
5883;BME280;2967;51.488;6.618;2023-01-08T12:54:49;99748.72;;;11.86;100.00
5883;BME280;2967;51.488;6.618;2023-01-08T12:59:59;99745.19;;;12.06;100.00
5883;BME280;2967;51.488;6.618;2023-01-08T13:05:27;99739.31;;;12.02;100.00
5883;BME280;2967;51.488;6.618;2023-01-08T13:10:37;99734.22;;;11.90;100.00
5883;BME280;2967;51.488;6.618;2023-01-08T13:15:41;99743.72;;;11.83;100.00
5883;BME280;2967;51.488;6.618;2023-01-08T13:20:54;99726.78;;;11.74;100.00
5883;BME280;2967;51.488;6.618;2023-01-08T13:25:59;99725.28;;;11.81;100.00
5883;BME280;2967;51.488;6.618;2023-01-08T13:31:09;99727.25;;;11.89;100.00
5883;BME280;2967;51.488;6.618;2023-01-08T13:36:28;99719.50;;;11.97;100.00
5883;BME280;2967;51.488;6.618;2023-01-08T13:41:33;99707.31;;;11.85;100.00
5883;BME280;2967;51.488;6.618;2023-01-08T13:46:36;99702.41;;;11.80;100.00
5883;BME280;2967;51.488;6.618;2023-01-08T13:51:43;99695.38;;;11.70;100.00
5883;BME280;2967;51.488;6.618;2023-01-08T13:56:52;99692.63;;;11.81;100.00
5883;BME280;2967;51.488;6.618;2023-01-08T14:01:56;99689.78;;;11.63;100.00
5883;BME280;2967;51.488;6.618;2023-01-08T14:07:11;99692.59;;;11.71;100.00
5883;BME280;2967;51.488;6.618;2023-01-08T14:12:17;99678.13;;;11.75;100.00
5883;BME280;2967;51.488;6.618;2023-01-08T14:17:27;99676.53;;;11.63;100.00
5883;BME280;2967;51.488;6.618;2023-01-08T14:22:32;99680.03;;;11.64;100.00
5883;BME280;2967;51.488;6.618;2023-01-08T14:27:38;99664.56;;;11.69;100.00
5883;BME280;2967;51.488;6.618;2023-01-08T14:32:42;99654.56;;;11.52;100.00
5883;BME280;2967;51.488;6.618;2023-01-08T14:37:45;99656.31;;;11.62;100.00
5883;BME280;2967;51.488;6.618;2023-01-08T14:42:49;99656.03;;;11.65;100.00
5883;BME280;2967;51.488;6.618;2023-01-08T14:47:55;99653.00;;;11.70;100.00
5883;BME280;2967;51.488;6.618;2023-01-08T14:53:04;99634.84;;;11.65;100.00
5883;BME280;2967;51.488;6.618;2023-01-08T14:58:13;99630.00;;;11.70;100.00
5883;BME280;2967;51.488;6.618;2023-01-08T15:03:33;99632.91;;;11.67;100.00
5883;BME280;2967;51.488;6.618;2023-01-08T15:08:37;99618.53;;;11.60;100.00
5883;BME280;2967;51.488;6.618;2023-01-08T15:13:41;99623.25;;;11.57;100.00
5883;BME280;2967;51.488;6.618;2023-01-08T15:18:45;99606.06;;;11.51;100.00
5883;BME280;2967;51.488;6.618;2023-01-08T15:23:50;99612.75;;;11.55;100.00
5883;BME280;2967;51.488;6.618;2023-01-08T15:28:57;99610.22;;;11.44;100.00
5883;BME280;2967;51.488;6.618;2023-01-08T15:34:01;99617.19;;;11.45;100.00
5883;BME280;2967;51.488;6.618;2023-01-08T15:39:04;99592.63;;;11.34;100.00
5883;BME280;2967;51.488;6.618;2023-01-08T15:44:10;99584.19;;;11.19;100.00
5883;BME280;2967;51.488;6.618;2023-01-08T15:49:14;99607.47;;;11.25;100.00
5883;BME280;2967;51.488;6.618;2023-01-08T15:54:18;99604.78;;;11.16;100.00
5883;BME280;2967;51.488;6.618;2023-01-08T15:59:23;99597.13;;;11.13;100.00
5883;BME280;2967;51.488;6.618;2023-01-08T16:04:26;99600.25;;;10.97;100.00
5883;BME280;2967;51.488;6.618;2023-01-08T16:09:28;99598.03;;;11.02;100.00
5883;BME280;2967;51.488;6.618;2023-01-08T16:14:32;99594.69;;;11.00;100.00
5883;BME280;2967;51.488;6.618;2023-01-08T16:19:38;99597.34;;;11.00;100.00
5883;BME280;2967;51.488;6.618;2023-01-08T16:24:40;99592.81;;;10.91;100.00
5883;BME280;2967;51.488;6.618;2023-01-08T16:29:44;99601.06;;;10.98;100.00
5883;BME280;2967;51.488;6.618;2023-01-08T16:34:47;99569.66;;;10.84;100.00
5883;BME280;2967;51.488;6.618;2023-01-08T16:39:50;99599.44;;;11.06;100.00
5883;BME280;2967;51.488;6.618;2023-01-08T16:44:53;99596.09;;;11.04;100.00
5883;BME280;2967;51.488;6.618;2023-01-08T16:49:56;99590.78;;;11.04;100.00
5883;BME280;2967;51.488;6.618;2023-01-08T16:54:59;99583.78;;;10.94;100.00
5883;BME280;2967;51.488;6.618;2023-01-08T17:00:04;99574.06;;;10.74;100.00
5883;BME280;2967;51.488;6.618;2023-01-08T17:05:08;99572.50;;;10.71;100.00
5883;BME280;2967;51.488;6.618;2023-01-08T17:10:11;99545.16;;;10.61;100.00
5883;BME280;2967;51.488;6.618;2023-01-08T17:15:15;99553.28;;;10.69;100.00
5883;BME280;2967;51.488;6.618;2023-01-08T17:20:18;99538.91;;;10.62;100.00
5883;BME280;2967;51.488;6.618;2023-01-08T17:25:21;99541.28;;;10.65;100.00
5883;BME280;2967;51.488;6.618;2023-01-08T17:30:25;99537.50;;;10.58;100.00
5883;BME280;2967;51.488;6.618;2023-01-08T17:35:27;99543.19;;;10.54;100.00
5883;BME280;2967;51.488;6.618;2023-01-08T17:40:30;99533.56;;;10.53;100.00
5883;BME280;2967;51.488;6.618;2023-01-08T17:45:36;99532.72;;;10.52;100.00
5883;BME280;2967;51.488;6.618;2023-01-08T17:50:39;99522.59;;;10.57;100.00
5883;BME280;2967;51.488;6.618;2023-01-08T17:55:42;99523.13;;;10.51;100.00
5883;BME280;2967;51.488;6.618;2023-01-08T18:00:46;99506.75;;;10.57;100.00
5883;BME280;2967;51.488;6.618;2023-01-08T18:05:49;99495.28;;;10.48;100.00
5883;BME280;2967;51.488;6.618;2023-01-08T18:10:51;99491.69;;;10.58;100.00
5883;BME280;2967;51.488;6.618;2023-01-08T18:15:59;99491.84;;;10.36;100.00
5883;BME280;2967;51.488;6.618;2023-01-08T18:21:03;99483.06;;;10.36;100.00
5883;BME280;2967;51.488;6.618;2023-01-08T18:26:07;99479.03;;;10.32;100.00
5883;BME280;2967;51.488;6.618;2023-01-08T18:31:14;99465.59;;;10.24;100.00
5883;BME280;2967;51.488;6.618;2023-01-08T18:36:17;99471.91;;;10.32;100.00
5883;BME280;2967;51.488;6.618;2023-01-08T18:41:20;99476.66;;;10.29;100.00
5883;BME280;2967;51.488;6.618;2023-01-08T18:46:42;99467.75;;;10.30;100.00
5883;BME280;2967;51.488;6.618;2023-01-08T18:51:47;99452.47;;;10.33;100.00
5883;BME280;2967;51.488;6.618;2023-01-08T18:56:50;99425.06;;;10.14;100.00
5883;BME280;2967;51.488;6.618;2023-01-08T19:01:54;99438.91;;;10.27;100.00
5883;BME280;2967;51.488;6.618;2023-01-08T19:06:57;99424.50;;;10.31;100.00
5883;BME280;2967;51.488;6.618;2023-01-08T19:11:59;99414.34;;;10.36;100.00
5883;BME280;2967;51.488;6.618;2023-01-08T19:17:03;99406.41;;;10.36;100.00
5883;BME280;2967;51.488;6.618;2023-01-08T19:22:06;99402.97;;;10.35;100.00
5883;BME280;2967;51.488;6.618;2023-01-08T19:27:08;99391.16;;;10.39;100.00
5883;BME280;2967;51.488;6.618;2023-01-08T19:32:12;99381.59;;;10.48;100.00
5883;BME280;2967;51.488;6.618;2023-01-08T19:37:15;99379.09;;;10.55;100.00
5883;BME280;2967;51.488;6.618;2023-01-08T19:42:18;99384.97;;;10.59;100.00
5883;BME280;2967;51.488;6.618;2023-01-08T19:47:40;99357.84;;;10.57;100.00
5883;BME280;2967;51.488;6.618;2023-01-08T19:52:42;99363.13;;;10.57;100.00
5883;BME280;2967;51.488;6.618;2023-01-08T19:57:45;99361.00;;;10.51;100.00
5883;BME280;2967;51.488;6.618;2023-01-08T20:02:50;99353.03;;;10.42;100.00
5883;BME280;2967;51.488;6.618;2023-01-08T20:07:53;99345.06;;;10.32;100.00
5883;BME280;2967;51.488;6.618;2023-01-08T20:12:56;99342.38;;;11.20;100.00
5883;BME280;2967;51.488;6.618;2023-01-08T20:17:59;99332.63;;;11.21;100.00
5883;BME280;2967;51.488;6.618;2023-01-08T20:23:02;99312.25;;;10.83;100.00
5883;BME280;2967;51.488;6.618;2023-01-08T20:28:06;99310.19;;;10.87;100.00
5883;BME280;2967;51.488;6.618;2023-01-08T20:33:10;99267.25;;;10.55;100.00
5883;BME280;2967;51.488;6.618;2023-01-08T20:38:18;99297.50;;;10.81;100.00
5883;BME280;2967;51.488;6.618;2023-01-08T20:43:21;99292.75;;;10.84;100.00
5883;BME280;2967;51.488;6.618;2023-01-08T20:48:25;99296.09;;;10.86;100.00
5883;BME280;2967;51.488;6.618;2023-01-08T20:53:32;99273.97;;;10.78;100.00
5883;BME280;2967;51.488;6.618;2023-01-08T20:58:36;99267.97;;;10.85;100.00
5883;BME280;2967;51.488;6.618;2023-01-08T21:03:42;99272.44;;;10.94;100.00
5883;BME280;2967;51.488;6.618;2023-01-08T21:08:48;99174.84;;;10.44;100.00
5883;BME280;2967;51.488;6.618;2023-01-08T21:13:52;99252.94;;;10.95;100.00
5883;BME280;2967;51.488;6.618;2023-01-08T21:18:57;99235.69;;;10.91;100.00
5883;BME280;2967;51.488;6.618;2023-01-08T21:24:04;99246.84;;;10.95;100.00
5883;BME280;2967;51.488;6.618;2023-01-08T21:29:09;99228.88;;;10.89;100.00
5883;BME280;2967;51.488;6.618;2023-01-08T21:34:13;99225.41;;;10.98;100.00
5883;BME280;2967;51.488;6.618;2023-01-08T21:39:16;99110.19;;;10.39;100.00
5883;BME280;2967;51.488;6.618;2023-01-08T21:44:20;99199.22;;;10.85;100.00
5883;BME280;2967;51.488;6.618;2023-01-08T21:49:42;99200.59;;;10.99;100.00
5883;BME280;2967;51.488;6.618;2023-01-08T21:54:45;99182.38;;;10.86;100.00
5883;BME280;2967;51.488;6.618;2023-01-08T21:59:48;99179.03;;;10.94;100.00
5883;BME280;2967;51.488;6.618;2023-01-08T22:04:54;99176.78;;;10.99;100.00
5883;BME280;2967;51.488;6.618;2023-01-08T22:09:57;99109.75;;;10.43;100.00
5883;BME280;2967;51.488;6.618;2023-01-08T22:15:00;99188.38;;;10.88;100.00
5883;BME280;2967;51.488;6.618;2023-01-08T22:20:05;99187.09;;;10.73;100.00
5883;BME280;2967;51.488;6.618;2023-01-08T22:25:10;99175.69;;;10.63;100.00
5883;BME280;2967;51.488;6.618;2023-01-08T22:30:13;99167.06;;;10.52;100.00
5883;BME280;2967;51.488;6.618;2023-01-08T22:35:17;99158.44;;;10.50;100.00
5883;BME280;2967;51.488;6.618;2023-01-08T22:40:19;99056.00;;;9.95;100.00
5883;BME280;2967;51.488;6.618;2023-01-08T22:45:22;99139.81;;;10.51;100.00
5883;BME280;2967;51.488;6.618;2023-01-08T22:50:26;99136.31;;;10.51;100.00
5883;BME280;2967;51.488;6.618;2023-01-08T22:55:29;99104.72;;;10.40;100.00
5883;BME280;2967;51.488;6.618;2023-01-08T23:00:31;99119.91;;;10.48;100.00
5883;BME280;2967;51.488;6.618;2023-01-08T23:05:35;99120.59;;;10.49;100.00
5883;BME280;2967;51.488;6.618;2023-01-08T23:10:38;99121.84;;;10.45;100.00
5883;BME280;2967;51.488;6.618;2023-01-08T23:15:41;99141.31;;;10.44;100.00
5883;BME280;2967;51.488;6.618;2023-01-08T23:20:45;99148.84;;;10.40;100.00
5883;BME280;2967;51.488;6.618;2023-01-08T23:25:48;99143.69;;;10.29;100.00
5883;BME280;2967;51.488;6.618;2023-01-08T23:30:50;99143.81;;;10.18;100.00
5883;BME280;2967;51.488;6.618;2023-01-08T23:35:54;99148.16;;;10.38;100.00
5883;BME280;2967;51.488;6.618;2023-01-08T23:40:57;99145.50;;;10.38;100.00
5883;BME280;2967;51.488;6.618;2023-01-08T23:46:01;99140.19;;;10.28;100.00
5883;BME280;2967;51.488;6.618;2023-01-08T23:51:05;99134.63;;;10.22;100.00
5883;BME280;2967;51.488;6.618;2023-01-08T23:56:08;99137.94;;;10.05;100.00
